createdAt,value
2018-11-10T00:01:47.923Z,100.00
2018-11-10T00:04:18.509Z,100.00
2018-11-10T00:06:50.166Z,100.00
2018-11-10T00:09:20.926Z,100.00
2018-11-10T00:11:51.445Z,100.00
2018-11-10T00:14:22.113Z,100.00
2018-11-10T00:16:52.697Z,100.00
2018-11-10T00:19:23.263Z,100.00
2018-11-10T00:21:53.786Z,100.00
2018-11-10T00:24:24.280Z,100.00
2018-11-10T00:26:55.080Z,100.00
2018-11-10T00:29:25.626Z,100.00
2018-11-10T00:31:56.517Z,100.00
2018-11-10T00:34:27.183Z,100.00
2018-11-10T00:36:57.734Z,100.00
2018-11-10T00:39:28.334Z,100.00
2018-11-10T00:41:58.881Z,100.00
2018-11-10T00:44:29.514Z,100.00
2018-11-10T00:47:00.121Z,100.00
2018-11-10T00:49:30.763Z,100.00
2018-11-10T00:52:01.471Z,100.00
2018-11-10T00:54:32.241Z,100.00
2018-11-10T00:57:02.867Z,100.00
2018-11-10T00:59:33.497Z,100.00
2018-11-10T01:02:04.173Z,100.00
2018-11-10T01:04:34.764Z,100.00
2018-11-10T01:07:06.061Z,100.00
2018-11-10T01:09:36.775Z,100.00
2018-11-10T01:12:07.774Z,100.00
2018-11-10T01:14:38.389Z,100.00
2018-11-10T01:17:14.926Z,100.00
2018-11-10T01:19:46.469Z,100.00
2018-11-10T01:22:16.993Z,100.00
2018-11-10T01:24:48.080Z,100.00
2018-11-10T01:27:18.771Z,100.00
2018-11-10T01:29:49.481Z,100.00
2018-11-10T01:32:20.555Z,100.00
2018-11-10T01:34:52.019Z,100.00
2018-11-10T01:37:22.615Z,100.00
2018-11-10T01:39:53.098Z,100.00
2018-11-10T01:42:23.635Z,100.00
2018-11-10T01:44:54.148Z,100.00
2018-11-10T01:47:24.814Z,100.00
2018-11-10T01:49:55.369Z,100.00
2018-11-10T01:52:25.952Z,100.00
2018-11-10T01:54:56.694Z,100.00
2018-11-10T01:57:27.386Z,100.00
2018-11-10T01:59:57.830Z,100.00
2018-11-10T02:02:28.342Z,100.00
2018-11-10T02:04:58.781Z,100.00
2018-11-10T02:07:29.686Z,100.00
2018-11-10T02:10:00.248Z,100.00
2018-11-10T02:12:30.737Z,100.00
2018-11-10T02:15:01.312Z,100.00
2018-11-10T02:17:31.941Z,100.00
2018-11-10T02:20:02.573Z,100.00
2018-11-10T02:22:33.111Z,100.00
2018-11-10T02:25:03.804Z,100.00
2018-11-10T02:27:34.459Z,100.00
2018-11-10T02:30:05.133Z,100.00
2018-11-10T02:32:35.642Z,100.00
2018-11-10T02:35:07.335Z,100.00
2018-11-10T02:37:38.856Z,100.00
2018-11-10T02:40:11.288Z,100.00
2018-11-10T02:42:41.820Z,100.00
2018-11-10T02:45:13.923Z,100.00
2018-11-10T02:47:45.655Z,100.00
2018-11-10T02:50:16.682Z,100.00
2018-11-10T02:52:47.280Z,100.00
2018-11-10T02:55:17.781Z,100.00
2018-11-10T02:57:48.322Z,100.00
2018-11-10T03:00:18.931Z,100.00
2018-11-10T03:02:49.530Z,100.00
2018-11-10T03:05:20.110Z,100.00
2018-11-10T03:07:51.973Z,100.00
2018-11-10T03:10:22.567Z,100.00
2018-11-10T03:12:53.088Z,100.00
2018-11-10T03:15:23.668Z,100.00
2018-11-10T03:17:54.241Z,100.00
2018-11-10T03:20:25.901Z,100.00
2018-11-10T03:22:56.429Z,100.00
2018-11-10T03:25:26.980Z,100.00
2018-11-10T03:27:57.463Z,100.00
2018-11-10T03:30:27.926Z,100.00
2018-11-10T03:32:58.464Z,100.00
2018-11-10T03:35:29.992Z,100.00
2018-11-10T03:38:00.533Z,100.00
2018-11-10T03:40:31.194Z,100.00
2018-11-10T03:43:01.730Z,100.00
2018-11-10T03:45:32.278Z,100.00
2018-11-10T03:48:03.102Z,100.00
2018-11-10T03:50:33.634Z,100.00
2018-11-10T03:53:04.119Z,100.00
2018-11-10T03:55:34.698Z,100.00
2018-11-10T03:58:05.191Z,100.00
2018-11-10T04:00:35.772Z,100.00
2018-11-10T04:03:06.414Z,100.00
2018-11-10T04:05:36.970Z,100.00
2018-11-10T04:08:07.710Z,100.00
2018-11-10T04:10:38.385Z,100.00
2018-11-10T04:13:08.918Z,100.00
2018-11-10T04:15:39.427Z,100.00
2018-11-10T04:18:09.988Z,100.00
2018-11-10T04:20:40.501Z,100.00
2018-11-10T04:23:11.020Z,100.00
2018-11-10T04:25:41.665Z,100.00
2018-11-10T04:28:12.496Z,100.00
2018-11-10T04:30:43.002Z,100.00
2018-11-10T04:33:13.522Z,100.00
2018-11-10T04:35:44.073Z,100.00
2018-11-10T04:38:14.602Z,100.00
2018-11-10T04:40:45.186Z,100.00
2018-11-10T04:43:15.797Z,100.00
2018-11-10T04:45:46.476Z,100.00
2018-11-10T04:48:17.327Z,100.00
2018-11-10T04:50:48.515Z,100.00
2018-11-10T04:53:19.180Z,100.00
2018-11-10T04:55:49.838Z,100.00
2018-11-10T04:58:21.268Z,100.00
2018-11-10T05:00:52.403Z,100.00
2018-11-10T05:03:22.921Z,100.00
2018-11-10T05:05:53.524Z,100.00
2018-11-10T05:08:25.121Z,100.00
2018-11-10T05:10:55.716Z,100.00
2018-11-10T05:13:26.496Z,100.00
2018-11-10T05:15:56.984Z,100.00
2018-11-10T05:18:27.540Z,100.00
2018-11-10T05:20:58.145Z,100.00
2018-11-10T05:23:28.906Z,100.00
2018-11-10T05:25:59.492Z,100.00
2018-11-10T05:28:30.396Z,100.00
2018-11-10T05:31:01.097Z,100.00
2018-11-10T05:33:31.723Z,100.00
2018-11-10T05:36:02.299Z,100.00
2018-11-10T05:38:32.799Z,100.00
2018-11-10T05:41:04.175Z,100.00
2018-11-10T05:43:34.622Z,100.00
2018-11-10T05:46:05.260Z,100.00
2018-11-10T05:48:36.145Z,100.00
2018-11-10T05:51:07.044Z,100.00
2018-11-10T05:53:37.652Z,100.00
2018-11-10T05:56:09.405Z,100.00
2018-11-10T05:58:41.105Z,100.00
2018-11-10T06:01:12.110Z,100.00
2018-11-10T06:03:42.754Z,100.00
2018-11-10T06:06:13.376Z,100.00
2018-11-10T06:08:44.150Z,100.00
2018-11-10T06:11:14.664Z,100.00
2018-11-10T06:13:45.316Z,100.00
2018-11-10T06:16:15.912Z,100.00
2018-11-10T06:18:46.495Z,100.00
2018-11-10T06:21:17.047Z,100.00
2018-11-10T06:23:47.668Z,100.00
2018-11-10T06:26:20.818Z,100.00
2018-11-10T06:28:51.665Z,100.00
2018-11-10T06:31:22.896Z,100.00
2018-11-10T06:33:53.833Z,100.00
2018-11-10T06:36:24.364Z,100.00
2018-11-10T06:38:55.029Z,100.00
2018-11-10T06:41:25.690Z,100.00
2018-11-10T06:43:56.291Z,100.00
2018-11-10T06:46:26.853Z,100.00
2018-11-10T06:48:57.695Z,100.00
2018-11-10T06:51:28.242Z,100.00
2018-11-10T06:54:01.594Z,100.00
2018-11-10T06:56:33.136Z,100.00
2018-11-10T06:59:03.732Z,100.00
2018-11-10T07:01:34.285Z,100.00
2018-11-10T07:04:04.801Z,100.00
2018-11-10T07:06:35.386Z,100.00
2018-11-10T07:09:09.602Z,100.00
2018-11-10T07:11:41.904Z,100.00
2018-11-10T07:14:12.565Z,100.00
2018-11-10T07:16:43.054Z,100.00
2018-11-10T07:19:14.050Z,100.00
2018-11-10T07:21:44.653Z,100.00
2018-11-10T07:24:15.564Z,100.00
2018-11-10T07:26:46.098Z,100.00
2018-11-10T07:29:16.916Z,100.00
2018-11-10T07:31:47.535Z,100.00
2018-11-10T07:34:18.085Z,100.00
2018-11-10T07:36:49.439Z,100.00
2018-11-10T07:39:19.946Z,100.00
2018-11-10T07:41:50.566Z,100.00
2018-11-10T07:44:21.274Z,100.00
2018-11-10T07:46:51.949Z,100.00
2018-11-10T07:49:22.689Z,100.00
2018-11-10T07:51:53.227Z,100.00
2018-11-10T07:54:23.848Z,100.00
2018-11-10T07:56:54.393Z,100.00
2018-11-10T07:59:24.931Z,100.00
2018-11-10T08:01:55.503Z,100.00
2018-11-10T08:04:26.094Z,100.00
2018-11-10T08:06:56.682Z,100.00
2018-11-10T08:09:28.035Z,100.00
2018-11-10T08:11:58.695Z,100.00
2018-11-10T08:14:29.217Z,100.00
2018-11-10T08:16:59.926Z,100.00
2018-11-10T08:19:30.476Z,98.55
2018-11-10T08:22:00.977Z,98.98
2018-11-10T08:24:31.530Z,95.82
2018-11-10T08:27:02.578Z,95.67
2018-11-10T08:29:33.202Z,90.71
2018-11-10T08:32:03.786Z,90.39
2018-11-10T08:34:34.395Z,90.65
2018-11-10T08:37:04.934Z,90.90
2018-11-10T08:39:35.468Z,87.00
2018-11-10T08:42:06.048Z,88.17
2018-11-10T08:44:36.556Z,91.17
2018-11-10T08:47:07.465Z,91.33
2018-11-10T08:49:38.100Z,93.27
2018-11-10T08:52:08.669Z,90.62
2018-11-10T08:54:39.559Z,90.99
2018-11-10T08:57:10.125Z,92.32
2018-11-10T08:59:40.708Z,92.42
2018-11-10T09:02:11.372Z,89.13
2018-11-10T09:04:41.959Z,85.45
2018-11-10T09:07:12.481Z,81.49
2018-11-10T09:09:44.240Z,81.49
2018-11-10T09:12:15.858Z,77.73
2018-11-10T09:14:46.516Z,78.30
2018-11-10T09:17:17.030Z,73.19
2018-11-10T09:19:47.596Z,75.70
2018-11-10T09:22:19.519Z,72.04
2018-11-10T09:24:50.068Z,73.67
2018-11-10T09:27:20.600Z,74.46
2018-11-10T09:29:51.465Z,77.76
2018-11-10T09:32:22.047Z,77.20
2018-11-10T09:34:52.595Z,78.06
2018-11-10T09:37:23.071Z,75.80
2018-11-10T09:39:53.618Z,76.33
2018-11-10T09:42:24.276Z,77.56
2018-11-10T09:44:54.729Z,76.40
2018-11-10T09:47:25.284Z,77.37
2018-11-10T09:49:55.956Z,76.90
2018-11-10T09:52:26.442Z,77.81
2018-11-10T09:54:56.893Z,76.27
2018-11-10T09:57:27.404Z,75.84
2018-11-10T09:59:57.922Z,75.17
2018-11-10T10:02:28.842Z,78.65
2018-11-10T10:04:59.079Z,79.45
2018-11-10T10:07:29.621Z,80.30
2018-11-10T10:10:00.159Z,81.79
2018-11-10T10:12:30.694Z,81.78
2018-11-10T10:15:01.329Z,83.11
2018-11-10T10:17:32.384Z,81.10
2018-11-10T10:20:02.938Z,81.30
2018-11-10T10:22:33.530Z,81.72
2018-11-10T10:25:04.020Z,81.69
2018-11-10T10:27:34.542Z,83.18
2018-11-10T10:30:06.131Z,82.06
2018-11-10T10:32:36.727Z,81.25
2018-11-10T10:35:07.420Z,82.89
2018-11-10T10:37:37.831Z,82.59
2018-11-10T10:40:09.966Z,82.58
2018-11-10T10:42:40.477Z,82.11
2018-11-10T10:45:13.536Z,82.68
2018-11-10T10:47:44.435Z,81.20
2018-11-10T10:50:16.447Z,80.95
2018-11-10T10:52:47.050Z,79.79
2018-11-10T10:55:18.613Z,76.85
2018-11-10T10:57:50.070Z,78.70
2018-11-10T11:00:25.446Z,78.34
2018-11-10T11:05:05.641Z,78.99
2018-11-10T11:07:36.167Z,77.04
2018-11-10T11:10:08.003Z,76.90
2018-11-10T11:12:38.766Z,77.01
2018-11-10T11:15:09.986Z,75.65
2018-11-10T11:17:40.414Z,77.25
2018-11-10T11:20:11.401Z,76.56
2018-11-10T11:22:42.270Z,78.01
2018-11-10T11:25:13.583Z,79.66
2018-11-10T11:27:44.245Z,79.50
2018-11-10T11:30:14.795Z,79.63
2018-11-10T11:32:45.341Z,80.01
2018-11-10T11:35:16.015Z,80.63
2018-11-10T11:37:46.551Z,79.50
2018-11-10T11:40:17.123Z,77.90
2018-11-10T11:42:47.581Z,79.24
2018-11-10T11:45:19.042Z,80.37
2018-11-10T11:47:49.452Z,81.28
2018-11-10T11:50:19.979Z,82.45
2018-11-10T11:52:50.456Z,83.07
2018-11-10T11:55:20.946Z,81.53
2018-11-10T11:57:51.776Z,82.60
2018-11-10T12:00:22.223Z,84.23
2018-11-10T12:02:52.804Z,82.49
2018-11-10T12:05:23.343Z,82.62
2018-11-10T12:07:53.970Z,82.09
2018-11-10T12:10:24.482Z,82.30
2018-11-10T12:12:54.966Z,83.29
2018-11-10T12:15:25.509Z,82.63
2018-11-10T12:17:56.020Z,82.29
2018-11-10T12:20:26.619Z,82.30
2018-11-10T12:22:57.055Z,83.45
2018-11-10T12:25:27.596Z,84.01
2018-11-10T12:27:58.142Z,83.57
2018-11-10T12:30:28.648Z,84.46
2018-11-10T12:32:59.099Z,84.58
2018-11-10T12:35:29.638Z,84.46
2018-11-10T12:38:00.207Z,83.92
2018-11-10T12:40:30.610Z,83.64
2018-11-10T12:43:01.091Z,85.70
2018-11-10T12:45:31.833Z,84.70
2018-11-10T12:48:02.343Z,84.83
2018-11-10T12:50:33.027Z,85.21
2018-11-10T12:53:03.533Z,85.45
2018-11-10T12:55:34.106Z,85.92
2018-11-10T12:58:04.644Z,86.13
2018-11-10T13:00:35.203Z,85.60
2018-11-10T13:03:05.882Z,85.95
2018-11-10T13:05:36.533Z,85.78
2018-11-10T13:08:07.292Z,86.32
2018-11-10T13:10:37.945Z,85.05
2018-11-10T13:13:08.588Z,86.42
2018-11-10T13:15:39.055Z,85.84
2018-11-10T13:18:09.704Z,84.87
2018-11-10T13:20:40.187Z,84.77
2018-11-10T13:23:11.498Z,86.12
2018-11-10T13:25:42.127Z,85.63
2018-11-10T13:28:12.646Z,86.03
2018-11-10T13:30:43.239Z,86.49
2018-11-10T13:33:16.723Z,87.61
2018-11-10T13:35:47.798Z,88.74
2018-11-10T13:38:18.281Z,88.99
2018-11-10T13:40:48.881Z,89.29
2018-11-10T13:43:19.465Z,89.64
2018-11-10T13:45:50.320Z,90.35
2018-11-10T13:48:20.851Z,91.51
2018-11-10T13:50:51.790Z,91.31
2018-11-10T13:53:22.801Z,91.98
2018-11-10T13:55:53.370Z,91.68
2018-11-10T13:58:23.980Z,92.45
2018-11-10T14:00:54.446Z,92.80
2018-11-10T14:03:25.004Z,91.49
2018-11-10T14:05:55.723Z,91.51
2018-11-10T14:08:26.201Z,91.51
2018-11-10T14:10:56.811Z,92.26
2018-11-10T14:13:27.332Z,93.33
2018-11-10T14:15:57.900Z,93.63
2018-11-10T14:18:28.549Z,94.40
2018-11-10T14:20:59.101Z,96.37
2018-11-10T14:23:29.806Z,96.56
2018-11-10T14:26:03.334Z,97.32
2018-11-10T14:28:33.771Z,98.16
2018-11-10T14:31:04.242Z,98.97
2018-11-10T14:33:34.999Z,99.19
2018-11-10T14:36:06.323Z,98.84
2018-11-10T14:38:36.785Z,99.19
2018-11-10T14:41:07.482Z,99.69
2018-11-10T14:43:38.053Z,98.93
2018-11-10T14:46:08.797Z,99.43
2018-11-10T14:48:39.426Z,99.89
2018-11-10T14:51:09.903Z,99.71
2018-11-10T14:53:40.417Z,100.00
2018-11-10T14:56:11.006Z,99.34
2018-11-10T14:58:41.616Z,99.84
2018-11-10T15:01:12.209Z,99.56
2018-11-10T15:03:42.886Z,99.86
2018-11-10T15:06:13.674Z,100.00
2018-11-10T15:08:44.171Z,100.00
2018-11-10T15:11:14.786Z,100.00
2018-11-10T15:13:45.515Z,100.00
2018-11-10T15:16:16.183Z,100.00
2018-11-10T15:18:46.780Z,100.00
2018-11-10T15:21:17.277Z,100.00
2018-11-10T15:23:47.972Z,100.00
2018-11-10T15:26:18.814Z,100.00
2018-11-10T15:28:49.543Z,100.00
2018-11-10T15:31:20.076Z,100.00
2018-11-10T15:33:50.645Z,100.00
2018-11-10T15:36:21.293Z,100.00
2018-11-10T15:38:51.849Z,100.00
2018-11-10T15:41:22.328Z,100.00
2018-11-10T15:43:52.988Z,100.00
2018-11-10T15:46:23.663Z,100.00
2018-11-10T15:48:54.185Z,100.00
2018-11-10T15:51:24.821Z,100.00
2018-11-10T15:53:55.304Z,100.00
2018-11-10T15:56:25.794Z,100.00
2018-11-10T15:58:56.314Z,100.00
2018-11-10T16:01:26.863Z,100.00
2018-11-10T16:03:57.402Z,100.00
2018-11-10T16:06:28.118Z,100.00
2018-11-10T16:08:58.746Z,100.00
2018-11-10T16:11:29.317Z,100.00
2018-11-10T16:13:59.906Z,100.00
2018-11-10T16:16:30.480Z,100.00
2018-11-10T16:19:01.043Z,100.00
2018-11-10T16:21:31.671Z,100.00
2018-11-10T16:24:02.128Z,100.00
2018-11-10T16:26:32.669Z,100.00
2018-11-10T16:29:03.175Z,100.00
2018-11-10T16:31:33.676Z,100.00
2018-11-10T16:34:04.246Z,100.00
2018-11-10T16:36:34.778Z,100.00
2018-11-10T16:39:06.480Z,100.00
2018-11-10T16:41:37.098Z,100.00
2018-11-10T16:44:07.801Z,100.00
2018-11-10T16:46:38.515Z,100.00
2018-11-10T16:49:09.156Z,100.00
2018-11-10T16:51:39.720Z,100.00
2018-11-10T16:54:10.361Z,100.00
2018-11-10T16:56:41.065Z,100.00
2018-11-10T16:59:11.789Z,100.00
2018-11-10T17:01:42.437Z,100.00
2018-11-10T17:04:13.521Z,100.00
2018-11-10T17:06:44.348Z,100.00
2018-11-10T17:09:16.078Z,100.00
2018-11-10T17:11:46.666Z,100.00
2018-11-10T17:14:17.295Z,100.00
2018-11-10T17:16:47.990Z,100.00
2018-11-10T17:19:18.611Z,100.00
2018-11-10T17:21:49.433Z,100.00
2018-11-10T17:24:19.978Z,100.00
2018-11-10T17:26:50.887Z,100.00
2018-11-10T17:29:21.523Z,100.00
2018-11-10T17:31:52.118Z,100.00
2018-11-10T17:34:22.808Z,100.00
2018-11-10T17:36:53.446Z,100.00
2018-11-10T17:39:24.214Z,100.00
2018-11-10T17:41:54.682Z,100.00
2018-11-10T17:44:25.252Z,100.00
2018-11-10T17:46:56.078Z,100.00
2018-11-10T17:49:26.552Z,100.00
2018-11-10T17:51:57.183Z,100.00
2018-11-10T17:54:28.690Z,100.00
2018-11-10T17:56:59.205Z,100.00
2018-11-10T17:59:29.744Z,100.00
2018-11-10T18:02:00.746Z,100.00
2018-11-10T18:04:31.359Z,100.00
2018-11-10T18:07:02.136Z,100.00
2018-11-10T18:09:32.724Z,100.00
2018-11-10T18:12:03.301Z,100.00
2018-11-10T18:14:33.918Z,100.00
2018-11-10T18:17:04.438Z,100.00
2018-11-10T18:19:35.047Z,100.00
2018-11-10T18:22:05.857Z,100.00
2018-11-10T18:24:36.465Z,100.00
2018-11-10T18:27:07.247Z,100.00
2018-11-10T18:29:37.890Z,100.00
2018-11-10T18:32:08.467Z,100.00
2018-11-10T18:34:39.057Z,100.00
2018-11-10T18:37:09.619Z,100.00
2018-11-10T18:39:40.222Z,100.00
2018-11-10T18:42:10.750Z,100.00
2018-11-10T18:44:41.390Z,100.00
2018-11-10T18:47:12.065Z,100.00
2018-11-10T18:49:43.284Z,100.00
2018-11-10T18:52:14.982Z,100.00
2018-11-10T18:54:45.666Z,100.00
2018-11-10T18:57:16.597Z,100.00
2018-11-10T18:59:47.180Z,100.00
2018-11-10T19:02:17.708Z,100.00
2018-11-10T19:04:48.276Z,100.00
2018-11-10T19:07:19.093Z,100.00
2018-11-10T19:09:49.641Z,100.00
2018-11-10T19:12:20.242Z,100.00
2018-11-10T19:19:52.141Z,100.00
2018-11-10T19:22:22.726Z,100.00
2018-11-10T19:24:53.277Z,100.00
2018-11-10T19:27:23.883Z,100.00
2018-11-10T19:29:54.400Z,100.00
2018-11-10T19:32:24.920Z,100.00
2018-11-10T19:34:55.500Z,100.00
2018-11-10T19:37:26.376Z,100.00
2018-11-10T19:39:56.932Z,100.00
2018-11-10T19:42:27.582Z,100.00
2018-11-10T19:44:58.186Z,100.00
2018-11-10T19:47:28.757Z,100.00
2018-11-10T19:49:59.316Z,100.00
2018-11-10T19:52:29.801Z,100.00
2018-11-10T19:55:00.575Z,100.00
2018-11-10T19:57:31.293Z,100.00
2018-11-10T20:00:01.921Z,100.00
2018-11-10T20:02:32.482Z,100.00
2018-11-10T20:05:05.641Z,100.00
2018-11-10T20:07:36.427Z,100.00
2018-11-10T20:10:08.901Z,100.00
2018-11-10T20:12:43.683Z,100.00
2018-11-10T20:15:16.193Z,100.00
2018-11-10T20:17:47.144Z,100.00
2018-11-10T20:20:18.814Z,100.00
2018-11-10T20:22:49.365Z,100.00
2018-11-10T20:25:20.523Z,100.00
2018-11-10T20:27:51.197Z,100.00
2018-11-10T20:30:22.410Z,100.00
2018-11-10T20:32:53.077Z,100.00
2018-11-10T20:35:23.610Z,100.00
2018-11-10T20:37:56.101Z,100.00
2018-11-10T20:40:26.596Z,100.00
2018-11-10T20:42:57.150Z,100.00
2018-11-10T20:45:27.789Z,100.00
2018-11-10T20:48:00.710Z,100.00
2018-11-10T20:51:55.685Z,100.00
2018-11-10T20:54:26.455Z,100.00
2018-11-10T20:56:57.070Z,100.00
2018-11-10T20:59:27.910Z,100.00
2018-11-10T21:01:58.805Z,100.00
2018-11-10T21:04:29.410Z,100.00
2018-11-10T21:07:00.036Z,100.00
2018-11-10T21:09:30.635Z,100.00
2018-11-10T21:12:01.236Z,100.00
2018-11-10T21:14:31.786Z,100.00
2018-11-10T21:17:02.424Z,100.00
2018-11-10T21:19:33.249Z,100.00
2018-11-10T21:22:03.934Z,100.00
2018-11-10T21:24:34.534Z,100.00
2018-11-10T21:27:05.149Z,100.00
2018-11-10T21:29:35.856Z,100.00
2018-11-10T21:32:06.779Z,100.00
2018-11-10T21:34:37.430Z,100.00
2018-11-10T21:37:08.401Z,100.00
2018-11-10T21:39:42.600Z,100.00
2018-11-10T21:42:13.291Z,100.00
2018-11-10T21:44:43.897Z,100.00
2018-11-10T21:47:14.554Z,100.00
2018-11-10T21:49:45.237Z,100.00
2018-11-10T21:52:16.000Z,100.00
2018-11-10T21:54:46.636Z,100.00
2018-11-10T21:57:17.246Z,100.00
2018-11-10T21:59:48.019Z,100.00
2018-11-10T22:02:18.572Z,100.00
2018-11-10T22:04:49.189Z,100.00
2018-11-10T22:07:19.990Z,100.00
2018-11-10T22:09:50.532Z,100.00
2018-11-10T22:12:21.140Z,100.00
2018-11-10T22:14:52.508Z,100.00
2018-11-10T22:17:23.078Z,100.00
2018-11-10T22:19:53.807Z,100.00
2018-11-10T22:22:24.446Z,100.00
2018-11-10T22:24:56.987Z,100.00
2018-11-10T22:27:27.884Z,100.00
2018-11-10T22:29:58.394Z,100.00
2018-11-10T22:32:28.919Z,100.00
2018-11-10T22:34:59.516Z,100.00
2018-11-10T22:37:30.059Z,100.00
2018-11-10T22:40:01.637Z,100.00
2018-11-10T22:42:32.168Z,100.00
2018-11-10T22:45:02.758Z,100.00
2018-11-10T22:47:33.316Z,100.00
2018-11-10T22:50:03.826Z,100.00
2018-11-10T22:52:34.482Z,100.00
2018-11-10T22:55:05.011Z,100.00
2018-11-10T22:57:35.633Z,100.00
2018-11-10T23:00:14.860Z,100.00
2018-11-10T23:02:47.902Z,100.00
2018-11-10T23:05:19.108Z,100.00
2018-11-10T23:07:49.883Z,100.00
2018-11-10T23:10:20.658Z,100.00
2018-11-10T23:12:52.143Z,100.00
2018-11-10T23:15:22.928Z,100.00
2018-11-10T23:17:53.426Z,100.00
2018-11-10T23:20:24.233Z,100.00
2018-11-10T23:22:54.768Z,100.00
2018-11-10T23:25:25.303Z,100.00
2018-11-10T23:27:55.902Z,100.00
2018-11-10T23:30:26.356Z,100.00
2018-11-10T23:32:56.849Z,100.00
2018-11-10T23:35:27.352Z,100.00
2018-11-10T23:37:57.960Z,100.00
2018-11-10T23:40:28.769Z,100.00
2018-11-10T23:42:59.244Z,100.00
2018-11-10T23:45:29.863Z,100.00
2018-11-10T23:48:00.322Z,100.00
2018-11-10T23:50:30.951Z,100.00
2018-11-10T23:53:01.737Z,100.00
2018-11-10T23:55:32.271Z,100.00
2018-11-10T23:58:02.820Z,100.00
